sensor_id;sensor_type;location;lat;lon;timestamp;temperature;humidity
77727;SHT30;68312;53.502;10.030;2023-04-03T00:01:01;1.03;81.24
77727;SHT30;68312;53.502;10.030;2023-04-03T00:03:27;0.99;81.48
77727;SHT30;68312;53.502;10.030;2023-04-03T00:05:53;0.89;81.80
77727;SHT30;68312;53.502;10.030;2023-04-03T00:08:19;0.82;82.21
77727;SHT30;68312;53.502;10.030;2023-04-03T00:10:45;0.77;82.32
77727;SHT30;68312;53.502;10.030;2023-04-03T00:13:11;0.72;82.46
77727;SHT30;68312;53.502;10.030;2023-04-03T00:15:38;0.64;82.51
77727;SHT30;68312;53.502;10.030;2023-04-03T00:18:05;0.54;82.71
77727;SHT30;68312;53.502;10.030;2023-04-03T00:20:32;0.42;83.32
77727;SHT30;68312;53.502;10.030;2023-04-03T00:22:58;0.33;83.59
77727;SHT30;68312;53.502;10.030;2023-04-03T00:25:25;0.27;83.99
77727;SHT30;68312;53.502;10.030;2023-04-03T00:27:51;0.30;84.45
77727;SHT30;68312;53.502;10.030;2023-04-03T00:30:20;0.33;84.13
77727;SHT30;68312;53.502;10.030;2023-04-03T00:32:49;0.40;83.91
77727;SHT30;68312;53.502;10.030;2023-04-03T00:35:15;0.49;83.72
77727;SHT30;68312;53.502;10.030;2023-04-03T00:37:42;0.51;83.25
77727;SHT30;68312;53.502;10.030;2023-04-03T00:40:10;0.54;83.24
77727;SHT30;68312;53.502;10.030;2023-04-03T00:42:39;0.61;82.94
77727;SHT30;68312;53.502;10.030;2023-04-03T00:47:32;0.44;83.10
77727;SHT30;68312;53.502;10.030;2023-04-03T00:49:58;0.36;83.38
77727;SHT30;68312;53.502;10.030;2023-04-03T00:52:28;0.27;83.60
77727;SHT30;68312;53.502;10.030;2023-04-03T00:55:03;0.16;83.97
77727;SHT30;68312;53.502;10.030;2023-04-03T00:57:31;0.14;84.55
77727;SHT30;68312;53.502;10.030;2023-04-03T01:00:05;0.17;84.32
77727;SHT30;68312;53.502;10.030;2023-04-03T01:02:35;0.26;84.11
77727;SHT30;68312;53.502;10.030;2023-04-03T01:05:00;0.33;83.78
77727;SHT30;68312;53.502;10.030;2023-04-03T01:07:30;0.43;83.34
77727;SHT30;68312;53.502;10.030;2023-04-03T01:10:00;0.50;83.01
77727;SHT30;68312;53.502;10.030;2023-04-03T01:12:36;0.51;83.00
77727;SHT30;68312;53.502;10.030;2023-04-03T01:15:20;0.54;82.83
77727;SHT30;68312;53.502;10.030;2023-04-03T01:17:57;0.60;82.36
77727;SHT30;68312;53.502;10.030;2023-04-03T01:25:52;0.64;82.08
77727;SHT30;68312;53.502;10.030;2023-04-03T01:28:31;0.61;82.20
77727;SHT30;68312;53.502;10.030;2023-04-03T01:31:13;0.61;82.24
77727;SHT30;68312;53.502;10.030;2023-04-03T01:33:46;0.61;82.07
77727;SHT30;68312;53.502;10.030;2023-04-03T01:36:26;0.64;81.98
77727;SHT30;68312;53.502;10.030;2023-04-03T01:38:54;0.63;81.85
77727;SHT30;68312;53.502;10.030;2023-04-03T01:41:21;0.61;81.81
77727;SHT30;68312;53.502;10.030;2023-04-03T01:43:48;0.63;81.84
77727;SHT30;68312;53.502;10.030;2023-04-03T01:46:16;0.64;81.71
77727;SHT30;68312;53.502;10.030;2023-04-03T01:48:42;0.65;81.60
77727;SHT30;68312;53.502;10.030;2023-04-03T01:51:07;0.68;81.37
77727;SHT30;68312;53.502;10.030;2023-04-03T01:53:33;0.54;81.30
77727;SHT30;68312;53.502;10.030;2023-04-03T01:55:59;0.42;81.79
77727;SHT30;68312;53.502;10.030;2023-04-03T01:58:25;0.33;82.45
77727;SHT30;68312;53.502;10.030;2023-04-03T02:00:51;0.20;82.64
77727;SHT30;68312;53.502;10.030;2023-04-03T02:03:17;0.13;83.33
77727;SHT30;68312;53.502;10.030;2023-04-03T02:05:43;0.17;83.49
77727;SHT30;68312;53.502;10.030;2023-04-03T02:08:09;0.24;83.25
77727;SHT30;68312;53.502;10.030;2023-04-03T02:10:35;0.23;82.79
77727;SHT30;68312;53.502;10.030;2023-04-03T02:13:00;0.13;83.01
77727;SHT30;68312;53.502;10.030;2023-04-03T02:15:26;0.02;83.40
77727;SHT30;68312;53.502;10.030;2023-04-03T02:17:52;-0.08;83.78
77727;SHT30;68312;53.502;10.030;2023-04-03T02:20:18;-0.11;84.31
77727;SHT30;68312;53.502;10.030;2023-04-03T02:22:43;-0.09;84.33
77727;SHT30;68312;53.502;10.030;2023-04-03T02:25:09;-0.05;84.58
77727;SHT30;68312;53.502;10.030;2023-04-03T02:27:35;0.07;84.14
77727;SHT30;68312;53.502;10.030;2023-04-03T02:30:02;0.19;83.40
77727;SHT30;68312;53.502;10.030;2023-04-03T02:32:29;0.33;83.00
77727;SHT30;68312;53.502;10.030;2023-04-03T02:34:54;0.42;82.60
77727;SHT30;68312;53.502;10.030;2023-04-03T02:37:20;0.43;82.36
77727;SHT30;68312;53.502;10.030;2023-04-03T02:39:46;0.46;82.09
77727;SHT30;68312;53.502;10.030;2023-04-03T02:42:12;0.54;81.42
77727;SHT30;68312;53.502;10.030;2023-04-03T02:44:38;0.60;81.17
77727;SHT30;68312;53.502;10.030;2023-04-03T02:47:04;0.61;80.96
77727;SHT30;68312;53.502;10.030;2023-04-03T02:49:30;0.63;80.77
77727;SHT30;68312;53.502;10.030;2023-04-03T02:51:57;0.61;80.90
77727;SHT30;68312;53.502;10.030;2023-04-03T02:54:22;0.60;81.04
77727;SHT30;68312;53.502;10.030;2023-04-03T02:56:50;0.57;81.03
77727;SHT30;68312;53.502;10.030;2023-04-03T02:59:16;0.54;81.22
77727;SHT30;68312;53.502;10.030;2023-04-03T03:01:41;0.53;81.10
77727;SHT30;68312;53.502;10.030;2023-04-03T03:04:07;0.54;81.10
77727;SHT30;68312;53.502;10.030;2023-04-03T03:06:32;0.56;81.00
77727;SHT30;68312;53.502;10.030;2023-04-03T03:08:58;0.56;80.93
77727;SHT30;68312;53.502;10.030;2023-04-03T03:11:23;0.56;81.04
77727;SHT30;68312;53.502;10.030;2023-04-03T03:13:50;0.57;81.10
77727;SHT30;68312;53.502;10.030;2023-04-03T03:16:15;0.58;81.30
77727;SHT30;68312;53.502;10.030;2023-04-03T03:18:41;0.53;81.34
77727;SHT30;68312;53.502;10.030;2023-04-03T03:21:06;0.49;81.41
77727;SHT30;68312;53.502;10.030;2023-04-03T03:23:33;0.44;81.75
77727;SHT30;68312;53.502;10.030;2023-04-03T03:26:03;0.43;81.62
77727;SHT30;68312;53.502;10.030;2023-04-03T03:28:30;0.42;81.70
77727;SHT30;68312;53.502;10.030;2023-04-03T03:30:58;0.42;81.77
77727;SHT30;68312;53.502;10.030;2023-04-03T03:33:24;0.46;81.72
77727;SHT30;68312;53.502;10.030;2023-04-03T03:35:51;0.46;81.77
77727;SHT30;68312;53.502;10.030;2023-04-03T03:38:18;0.47;81.91
77727;SHT30;68312;53.502;10.030;2023-04-03T03:40:44;0.47;81.97
77727;SHT30;68312;53.502;10.030;2023-04-03T03:43:09;0.46;81.94
77727;SHT30;68312;53.502;10.030;2023-04-03T03:45:35;0.49;81.83
77727;SHT30;68312;53.502;10.030;2023-04-03T03:48:02;0.53;81.65
77727;SHT30;68312;53.502;10.030;2023-04-03T03:50:27;0.50;81.56
77727;SHT30;68312;53.502;10.030;2023-04-03T03:52:53;0.50;81.41
77727;SHT30;68312;53.502;10.030;2023-04-03T03:55:18;0.47;81.75
77727;SHT30;68312;53.502;10.030;2023-04-03T03:57:44;0.42;81.87
77727;SHT30;68312;53.502;10.030;2023-04-03T04:00:10;0.43;82.08
77727;SHT30;68312;53.502;10.030;2023-04-03T04:02:36;0.43;82.01
77727;SHT30;68312;53.502;10.030;2023-04-03T04:05:01;0.43;81.93
77727;SHT30;68312;53.502;10.030;2023-04-03T04:07:27;0.43;81.87
77727;SHT30;68312;53.502;10.030;2023-04-03T04:09:54;0.46;81.71
77727;SHT30;68312;53.502;10.030;2023-04-03T04:12:21;0.50;81.33
77727;SHT30;68312;53.502;10.030;2023-04-03T04:14:47;0.50;81.22
77727;SHT30;68312;53.502;10.030;2023-04-03T04:17:13;0.49;81.38
77727;SHT30;68312;53.502;10.030;2023-04-03T04:19:39;0.47;81.53
77727;SHT30;68312;53.502;10.030;2023-04-03T04:22:05;0.42;81.68
77727;SHT30;68312;53.502;10.030;2023-04-03T04:24:31;0.34;81.71
77727;SHT30;68312;53.502;10.030;2023-04-03T04:26:56;0.33;82.08
77727;SHT30;68312;53.502;10.030;2023-04-03T04:29:22;0.27;82.29
77727;SHT30;68312;53.502;10.030;2023-04-03T04:31:48;0.19;82.48
77727;SHT30;68312;53.502;10.030;2023-04-03T04:34:14;0.12;82.88
77727;SHT30;68312;53.502;10.030;2023-04-03T04:36:40;0.01;83.31
77727;SHT30;68312;53.502;10.030;2023-04-03T04:39:06;-0.14;83.78
77727;SHT30;68312;53.502;10.030;2023-04-03T04:41:32;-0.23;84.32
77727;SHT30;68312;53.502;10.030;2023-04-03T04:43:58;-0.26;84.90
77727;SHT30;68312;53.502;10.030;2023-04-03T04:46:23;-0.32;85.19
77727;SHT30;68312;53.502;10.030;2023-04-03T04:48:49;-0.36;85.42
77727;SHT30;68312;53.502;10.030;2023-04-03T04:51:15;-0.43;85.48
77727;SHT30;68312;53.502;10.030;2023-04-03T04:53:41;-0.53;85.76
77727;SHT30;68312;53.502;10.030;2023-04-03T04:56:07;-0.70;85.63
77727;SHT30;68312;53.502;10.030;2023-04-03T04:58:33;-0.88;86.03
77727;SHT30;68312;53.502;10.030;2023-04-03T05:01:07;-1.07;86.56
77727;SHT30;68312;53.502;10.030;2023-04-03T05:03:34;-1.18;87.00
77727;SHT30;68312;53.502;10.030;2023-04-03T05:06:00;-1.27;87.44
77727;SHT30;68312;53.502;10.030;2023-04-03T05:08:26;-1.32;87.76
77727;SHT30;68312;53.502;10.030;2023-04-03T05:10:52;-1.41;88.08
77727;SHT30;68312;53.502;10.030;2023-04-03T05:13:18;-1.42;88.42
77727;SHT30;68312;53.502;10.030;2023-04-03T05:15:44;-1.42;88.88
77727;SHT30;68312;53.502;10.030;2023-04-03T05:18:09;-1.44;89.37
77727;SHT30;68312;53.502;10.030;2023-04-03T05:20:35;-1.39;89.62
77727;SHT30;68312;53.502;10.030;2023-04-03T05:23:02;-1.39;89.72
77727;SHT30;68312;53.502;10.030;2023-04-03T05:25:28;-1.35;89.96
77727;SHT30;68312;53.502;10.030;2023-04-03T05:27:54;-1.31;89.94
77727;SHT30;68312;53.502;10.030;2023-04-03T05:30:19;-1.27;90.08
77727;SHT30;68312;53.502;10.030;2023-04-03T05:32:45;-1.24;89.98
77727;SHT30;68312;53.502;10.030;2023-04-03T05:35:11;-1.19;90.01
77727;SHT30;68312;53.502;10.030;2023-04-03T05:37:37;-1.09;90.04
77727;SHT30;68312;53.502;10.030;2023-04-03T05:40:04;-1.01;89.64
77727;SHT30;68312;53.502;10.030;2023-04-03T05:42:31;-0.98;89.14
77727;SHT30;68312;53.502;10.030;2023-04-03T05:44:57;-0.95;89.33
77727;SHT30;68312;53.502;10.030;2023-04-03T05:47:22;-0.90;89.28
77727;SHT30;68312;53.502;10.030;2023-04-03T05:49:48;-0.81;89.15
77727;SHT30;68312;53.502;10.030;2023-04-03T05:52:26;-0.67;88.97
77727;SHT30;68312;53.502;10.030;2023-04-03T05:54:54;-0.49;88.45
77727;SHT30;68312;53.502;10.030;2023-04-03T05:57:20;-0.25;86.89
77727;SHT30;68312;53.502;10.030;2023-04-03T05:59:46;0.03;85.76
77727;SHT30;68312;53.502;10.030;2023-04-03T06:02:17;0.32;83.92
77727;SHT30;68312;53.502;10.030;2023-04-03T06:04:44;0.63;82.40
77727;SHT30;68312;53.502;10.030;2023-04-03T06:07:14;0.89;81.22
77727;SHT30;68312;53.502;10.030;2023-04-03T06:09:43;1.09;80.27
77727;SHT30;68312;53.502;10.030;2023-04-03T06:12:08;1.31;78.60
77727;SHT30;68312;53.502;10.030;2023-04-03T06:14:35;1.50;77.73
77727;SHT30;68312;53.502;10.030;2023-04-03T06:17:01;1.67;77.15
77727;SHT30;68312;53.502;10.030;2023-04-03T06:19:28;1.74;76.69
77727;SHT30;68312;53.502;10.030;2023-04-03T06:21:54;1.84;76.60
77727;SHT30;68312;53.502;10.030;2023-04-03T06:24:20;1.98;75.51
77727;SHT30;68312;53.502;10.030;2023-04-03T06:26:48;2.18;75.69
77727;SHT30;68312;53.502;10.030;2023-04-03T06:29:15;2.31;73.95
77727;SHT30;68312;53.502;10.030;2023-04-03T06:31:40;2.42;73.28
77727;SHT30;68312;53.502;10.030;2023-04-03T06:34:06;2.59;74.26
77727;SHT30;68312;53.502;10.030;2023-04-03T06:36:33;2.67;72.92
77727;SHT30;68312;53.502;10.030;2023-04-03T06:39:00;2.83;72.59
77727;SHT30;68312;53.502;10.030;2023-04-03T06:41:26;2.93;71.44
77727;SHT30;68312;53.502;10.030;2023-04-03T06:43:52;3.14;72.60
77727;SHT30;68312;53.502;10.030;2023-04-03T06:46:21;3.34;70.26
77727;SHT30;68312;53.502;10.030;2023-04-03T06:48:48;3.48;69.77
77727;SHT30;68312;53.502;10.030;2023-04-03T06:51:21;3.59;68.88
77727;SHT30;68312;53.502;10.030;2023-04-03T06:53:55;3.80;69.69
77727;SHT30;68312;53.502;10.030;2023-04-03T06:56:25;3.99;68.29
77727;SHT30;68312;53.502;10.030;2023-04-03T06:58:53;4.13;67.71
77727;SHT30;68312;53.502;10.030;2023-04-03T07:01:25;4.09;67.66
77727;SHT30;68312;53.502;10.030;2023-04-03T07:03:55;4.18;68.12
77727;SHT30;68312;53.502;10.030;2023-04-03T07:06:21;4.41;67.89
77727;SHT30;68312;53.502;10.030;2023-04-03T07:08:47;4.64;66.62
77727;SHT30;68312;53.502;10.030;2023-04-03T07:11:14;4.80;65.53
77727;SHT30;68312;53.502;10.030;2023-04-03T07:13:40;4.82;64.73
77727;SHT30;68312;53.502;10.030;2023-04-03T07:16:07;4.93;65.77
77727;SHT30;68312;53.502;10.030;2023-04-03T07:18:33;5.13;66.12
77727;SHT30;68312;53.502;10.030;2023-04-03T07:21:00;5.24;64.63
77727;SHT30;68312;53.502;10.030;2023-04-03T07:23:26;5.26;64.69
77727;SHT30;68312;53.502;10.030;2023-04-03T07:25:52;5.33;65.02
77727;SHT30;68312;53.502;10.030;2023-04-03T07:28:20;5.36;64.43
77727;SHT30;68312;53.502;10.030;2023-04-03T07:31:11;5.46;63.60
77727;SHT30;68312;53.502;10.030;2023-04-03T07:33:39;5.47;61.36
77727;SHT30;68312;53.502;10.030;2023-04-03T07:36:07;5.33;61.25
77727;SHT30;68312;53.502;10.030;2023-04-03T07:38:35;5.33;59.99
77727;SHT30;68312;53.502;10.030;2023-04-03T07:41:03;5.36;61.69
77727;SHT30;68312;53.502;10.030;2023-04-03T07:43:29;5.50;60.42
77727;SHT30;68312;53.502;10.030;2023-04-03T07:45:55;5.54;60.78
77727;SHT30;68312;53.502;10.030;2023-04-03T07:48:24;5.96;60.76
77727;SHT30;68312;53.502;10.030;2023-04-03T07:50:51;6.32;58.38
77727;SHT30;68312;53.502;10.030;2023-04-03T07:53:17;6.48;55.81
77727;SHT30;68312;53.502;10.030;2023-04-03T07:55:47;6.58;55.72
77727;SHT30;68312;53.502;10.030;2023-04-03T07:58:16;6.83;53.70
77727;SHT30;68312;53.502;10.030;2023-04-03T08:00:45;6.95;53.93
77727;SHT30;68312;53.502;10.030;2023-04-03T08:03:11;7.05;53.73
77727;SHT30;68312;53.502;10.030;2023-04-03T08:05:45;7.15;52.62
77727;SHT30;68312;53.502;10.030;2023-04-03T08:08:23;7.20;53.07
77727;SHT30;68312;53.502;10.030;2023-04-03T08:10:53;7.19;55.75
77727;SHT30;68312;53.502;10.030;2023-04-03T08:13:20;7.33;55.25
77727;SHT30;68312;53.502;10.030;2023-04-03T08:15:47;7.40;52.02
77727;SHT30;68312;53.502;10.030;2023-04-03T08:18:14;7.54;53.33
77727;SHT30;68312;53.502;10.030;2023-04-03T08:20:41;7.71;52.60
77727;SHT30;68312;53.502;10.030;2023-04-03T08:23:08;7.88;52.08
77727;SHT30;68312;53.502;10.030;2023-04-03T08:25:41;8.04;51.63
77727;SHT30;68312;53.502;10.030;2023-04-03T08:28:10;8.06;51.14
77727;SHT30;68312;53.502;10.030;2023-04-03T08:30:41;8.11;51.02
77727;SHT30;68312;53.502;10.030;2023-04-03T08:33:07;8.14;49.12
77727;SHT30;68312;53.502;10.030;2023-04-03T08:35:41;8.21;50.04
77727;SHT30;68312;53.502;10.030;2023-04-03T08:38:09;8.55;49.62
77727;SHT30;68312;53.502;10.030;2023-04-03T08:40:35;8.70;47.95
77727;SHT30;68312;53.502;10.030;2023-04-03T08:44:10;8.59;45.12
77727;SHT30;68312;53.502;10.030;2023-04-03T08:46:22;8.22;46.23
77727;SHT30;68312;53.502;10.030;2023-04-03T08:48:59;8.24;45.48
77727;SHT30;68312;53.502;10.030;2023-04-03T08:51:26;8.77;44.86
77727;SHT30;68312;53.502;10.030;2023-04-03T08:54:21;9.17;46.29
77727;SHT30;68312;53.502;10.030;2023-04-03T08:56:54;9.41;44.18
77727;SHT30;68312;53.502;10.030;2023-04-03T08:59:33;9.52;42.21
77727;SHT30;68312;53.502;10.030;2023-04-03T09:02:21;9.36;42.42
77727;SHT30;68312;53.502;10.030;2023-04-03T09:04:52;9.45;43.44
77727;SHT30;68312;53.502;10.030;2023-04-03T09:07:36;9.46;42.98
77727;SHT30;68312;53.502;10.030;2023-04-03T09:10:12;9.43;41.66
77727;SHT30;68312;53.502;10.030;2023-04-03T09:12:45;9.79;39.50
77727;SHT30;68312;53.502;10.030;2023-04-03T09:15:24;9.97;40.25
77727;SHT30;68312;53.502;10.030;2023-04-03T09:21:17;10.65;37.44
77727;SHT30;68312;53.502;10.030;2023-04-03T09:23:52;11.06;36.81
77727;SHT30;68312;53.502;10.030;2023-04-03T09:29:24;14.06;32.07
77727;SHT30;68312;53.502;10.030;2023-04-03T09:31:56;14.60;29.77
77727;SHT30;68312;53.502;10.030;2023-04-03T09:34:31;15.20;30.11
77727;SHT30;68312;53.502;10.030;2023-04-03T09:37:03;15.58;30.32
77727;SHT30;68312;53.502;10.030;2023-04-03T09:39:51;16.10;28.95
77727;SHT30;68312;53.502;10.030;2023-04-03T09:42:23;16.55;29.55
77727;SHT30;68312;53.502;10.030;2023-04-03T09:45:02;16.97;24.92
77727;SHT30;68312;53.502;10.030;2023-04-03T09:47:32;16.57;24.30
77727;SHT30;68312;53.502;10.030;2023-04-03T09:50:28;15.81;25.23
77727;SHT30;68312;53.502;10.030;2023-04-03T09:52:54;15.74;27.34
77727;SHT30;68312;53.502;10.030;2023-04-03T09:55:27;15.94;25.10
77727;SHT30;68312;53.502;10.030;2023-04-03T09:58:23;15.09;27.96
77727;SHT30;68312;53.502;10.030;2023-04-03T10:00:57;15.81;25.45
77727;SHT30;68312;53.502;10.030;2023-04-03T10:03:36;15.31;24.46
77727;SHT30;68312;53.502;10.030;2023-04-03T10:06:03;15.37;25.19
77727;SHT30;68312;53.502;10.030;2023-04-03T10:09:00;15.19;26.13
77727;SHT30;68312;53.502;10.030;2023-04-03T10:11:29;15.43;25.37
77727;SHT30;68312;53.502;10.030;2023-04-03T10:13:59;15.29;26.09
77727;SHT30;68312;53.502;10.030;2023-04-03T10:16:35;15.84;24.88
77727;SHT30;68312;53.502;10.030;2023-04-03T10:19:34;16.46;24.54
77727;SHT30;68312;53.502;10.030;2023-04-03T10:22:19;15.62;25.07
77727;SHT30;68312;53.502;10.030;2023-04-03T10:28:07;15.85;24.87
77727;SHT30;68312;53.502;10.030;2023-04-03T10:34:06;16.23;28.32
77727;SHT30;68312;53.502;10.030;2023-04-03T10:37:04;15.55;26.09
77727;SHT30;68312;53.502;10.030;2023-04-03T10:42:46;15.91;28.12
77727;SHT30;68312;53.502;10.030;2023-04-03T10:45:48;15.91;29.96
77727;SHT30;68312;53.502;10.030;2023-04-03T10:48:40;15.77;27.78
77727;SHT30;68312;53.502;10.030;2023-04-03T10:51:22;15.81;27.88
77727;SHT30;68312;53.502;10.030;2023-04-03T10:54:12;15.94;25.55
77727;SHT30;68312;53.502;10.030;2023-04-03T10:56:45;15.94;27.12
77727;SHT30;68312;53.502;10.030;2023-04-03T10:59:25;14.86;28.62
77727;SHT30;68312;53.502;10.030;2023-04-03T11:02:01;15.79;27.71
77727;SHT30;68312;53.502;10.030;2023-04-03T11:04:37;15.72;28.72
77727;SHT30;68312;53.502;10.030;2023-04-03T11:07:16;16.40;27.86
77727;SHT30;68312;53.502;10.030;2023-04-03T11:09:50;15.81;27.10
77727;SHT30;68312;53.502;10.030;2023-04-03T11:12:41;15.68;27.21
77727;SHT30;68312;53.502;10.030;2023-04-03T11:15:17;15.82;31.05
77727;SHT30;68312;53.502;10.030;2023-04-03T11:17:54;15.77;28.19
77727;SHT30;68312;53.502;10.030;2023-04-03T11:20:32;15.43;30.85
77727;SHT30;68312;53.502;10.030;2023-04-03T11:23:25;15.54;28.91
77727;SHT30;68312;53.502;10.030;2023-04-03T11:26:11;15.64;29.38
77727;SHT30;68312;53.502;10.030;2023-04-03T11:28:38;15.82;27.03
77727;SHT30;68312;53.502;10.030;2023-04-03T11:31:37;15.30;28.14
77727;SHT30;68312;53.502;10.030;2023-04-03T11:34:41;15.54;30.46
77727;SHT30;68312;53.502;10.030;2023-04-03T11:37:41;14.96;31.24
77727;SHT30;68312;53.502;10.030;2023-04-03T11:40:24;15.72;30.95
77727;SHT30;68312;53.502;10.030;2023-04-03T11:43:04;16.36;33.84
77727;SHT30;68312;53.502;10.030;2023-04-03T11:45:38;15.64;29.28
77727;SHT30;68312;53.502;10.030;2023-04-03T11:53:42;11.09;36.22
77727;SHT30;68312;53.502;10.030;2023-04-03T12:01:57;10.18;37.94
77727;SHT30;68312;53.502;10.030;2023-04-03T12:04:27;9.45;38.67
77727;SHT30;68312;53.502;10.030;2023-04-03T12:07:18;10.42;37.45
77727;SHT30;68312;53.502;10.030;2023-04-03T12:12:34;11.29;34.95
77727;SHT30;68312;53.502;10.030;2023-04-03T12:15:41;12.70;38.29
77727;SHT30;68312;53.502;10.030;2023-04-03T12:21:11;14.81;30.08
77727;SHT30;68312;53.502;10.030;2023-04-03T12:24:23;14.42;31.47
77727;SHT30;68312;53.502;10.030;2023-04-03T12:29:33;14.69;29.91
77727;SHT30;68312;53.502;10.030;2023-04-03T12:32:50;14.11;31.28
77727;SHT30;68312;53.502;10.030;2023-04-03T12:36:18;13.67;34.40
77727;SHT30;68312;53.502;10.030;2023-04-03T12:39:16;12.64;35.87
77727;SHT30;68312;53.502;10.030;2023-04-03T12:45:19;13.89;31.81
77727;SHT30;68312;53.502;10.030;2023-04-03T12:47:49;13.07;33.49
77727;SHT30;68312;53.502;10.030;2023-04-03T12:50:23;11.71;34.59
77727;SHT30;68312;53.502;10.030;2023-04-03T12:52:59;11.05;35.69
77727;SHT30;68312;53.502;10.030;2023-04-03T12:55:28;10.76;36.10
77727;SHT30;68312;53.502;10.030;2023-04-03T12:57:54;10.29;35.93
77727;SHT30;68312;53.502;10.030;2023-04-03T13:02:57;9.90;38.49
77727;SHT30;68312;53.502;10.030;2023-04-03T13:05:24;10.04;37.99
77727;SHT30;68312;53.502;10.030;2023-04-03T13:08:04;10.95;38.18
77727;SHT30;68312;53.502;10.030;2023-04-03T13:11:03;13.21;32.18
77727;SHT30;68312;53.502;10.030;2023-04-03T13:13:32;13.99;32.95
77727;SHT30;68312;53.502;10.030;2023-04-03T13:15:58;13.44;33.27
77727;SHT30;68312;53.502;10.030;2023-04-03T13:18:32;13.70;31.53
77727;SHT30;68312;53.502;10.030;2023-04-03T13:21:17;12.09;32.92
77727;SHT30;68312;53.502;10.030;2023-04-03T13:23:51;11.66;35.34
77727;SHT30;68312;53.502;10.030;2023-04-03T13:26:27;12.77;34.32
77727;SHT30;68312;53.502;10.030;2023-04-03T13:29:02;14.03;33.55
77727;SHT30;68312;53.502;10.030;2023-04-03T13:31:35;15.61;29.16
77727;SHT30;68312;53.502;10.030;2023-04-03T13:34:11;15.95;27.30
77727;SHT30;68312;53.502;10.030;2023-04-03T13:39:31;12.08;33.39
77727;SHT30;68312;53.502;10.030;2023-04-03T13:42:14;11.30;34.80
77727;SHT30;68312;53.502;10.030;2023-04-03T13:44:42;13.18;32.09
77727;SHT30;68312;53.502;10.030;2023-04-03T13:50:03;13.19;31.83
77727;SHT30;68312;53.502;10.030;2023-04-03T13:53:03;14.96;28.27
77727;SHT30;68312;53.502;10.030;2023-04-03T13:55:59;14.92;27.83
77727;SHT30;68312;53.502;10.030;2023-04-03T13:58:30;14.68;28.98
77727;SHT30;68312;53.502;10.030;2023-04-03T14:01:54;14.76;29.37
77727;SHT30;68312;53.502;10.030;2023-04-03T14:07:15;13.22;31.10
77727;SHT30;68312;53.502;10.030;2023-04-03T14:09:43;13.01;29.06
77727;SHT30;68312;53.502;10.030;2023-04-03T14:12:18;13.65;29.55
77727;SHT30;68312;53.502;10.030;2023-04-03T14:14:51;13.04;28.77
77727;SHT30;68312;53.502;10.030;2023-04-03T14:17:23;13.12;29.22
77727;SHT30;68312;53.502;10.030;2023-04-03T14:19:52;12.30;28.98
77727;SHT30;68312;53.502;10.030;2023-04-03T14:22:24;12.93;28.58
77727;SHT30;68312;53.502;10.030;2023-04-03T14:24:52;13.44;28.35
77727;SHT30;68312;53.502;10.030;2023-04-03T14:27:26;13.96;28.44
77727;SHT30;68312;53.502;10.030;2023-04-03T14:30:06;13.97;29.20
77727;SHT30;68312;53.502;10.030;2023-04-03T14:32:38;14.57;28.94
77727;SHT30;68312;53.502;10.030;2023-04-03T14:35:05;13.66;29.46
77727;SHT30;68312;53.502;10.030;2023-04-03T14:37:32;13.01;29.46
77727;SHT30;68312;53.502;10.030;2023-04-03T14:40:00;12.73;30.16
77727;SHT30;68312;53.502;10.030;2023-04-03T14:42:34;12.49;29.89
77727;SHT30;68312;53.502;10.030;2023-04-03T14:45:08;12.66;29.82
77727;SHT30;68312;53.502;10.030;2023-04-03T14:47:44;12.33;29.36
77727;SHT30;68312;53.502;10.030;2023-04-03T14:50:20;12.12;29.91
77727;SHT30;68312;53.502;10.030;2023-04-03T14:52:52;11.70;30.97
77727;SHT30;68312;53.502;10.030;2023-04-03T14:55:23;11.95;30.02
77727;SHT30;68312;53.502;10.030;2023-04-03T14:57:49;11.77;31.38
77727;SHT30;68312;53.502;10.030;2023-04-03T15:00:19;12.21;30.25
77727;SHT30;68312;53.502;10.030;2023-04-03T15:02:47;11.94;32.18
77727;SHT30;68312;53.502;10.030;2023-04-03T15:05:14;11.61;31.00
77727;SHT30;68312;53.502;10.030;2023-04-03T15:07:52;11.33;31.51
77727;SHT30;68312;53.502;10.030;2023-04-03T15:10:27;11.03;32.10
77727;SHT30;68312;53.502;10.030;2023-04-03T15:12:55;10.98;33.94
77727;SHT30;68312;53.502;10.030;2023-04-03T15:15:23;10.85;31.91
77727;SHT30;68312;53.502;10.030;2023-04-03T15:17:54;11.02;32.54
77727;SHT30;68312;53.502;10.030;2023-04-03T15:20:24;10.36;33.07
77727;SHT30;68312;53.502;10.030;2023-04-03T15:22:52;9.99;34.85
77727;SHT30;68312;53.502;10.030;2023-04-03T15:25:18;10.09;34.73
77727;SHT30;68312;53.502;10.030;2023-04-03T15:27:44;10.14;35.35
77727;SHT30;68312;53.502;10.030;2023-04-03T15:30:18;10.20;35.70
77727;SHT30;68312;53.502;10.030;2023-04-03T15:32:44;10.13;37.34
77727;SHT30;68312;53.502;10.030;2023-04-03T15:35:10;10.33;35.70
77727;SHT30;68312;53.502;10.030;2023-04-03T15:37:36;10.04;36.05
77727;SHT30;68312;53.502;10.030;2023-04-03T15:40:04;9.92;36.67
77727;SHT30;68312;53.502;10.030;2023-04-03T15:42:31;9.69;37.08
77727;SHT30;68312;53.502;10.030;2023-04-03T15:44:56;9.46;37.75
77727;SHT30;68312;53.502;10.030;2023-04-03T15:47:22;9.46;39.54
77727;SHT30;68312;53.502;10.030;2023-04-03T15:49:49;9.17;38.24
77727;SHT30;68312;53.502;10.030;2023-04-03T15:52:14;8.67;38.91
77727;SHT30;68312;53.502;10.030;2023-04-03T15:54:40;8.90;39.63
77727;SHT30;68312;53.502;10.030;2023-04-03T15:57:05;8.97;38.77
77727;SHT30;68312;53.502;10.030;2023-04-03T15:59:31;8.93;39.86
77727;SHT30;68312;53.502;10.030;2023-04-03T16:01:57;8.74;40.06
77727;SHT30;68312;53.502;10.030;2023-04-03T16:04:24;8.62;41.38
77727;SHT30;68312;53.502;10.030;2023-04-03T16:06:50;8.63;41.05
77727;SHT30;68312;53.502;10.030;2023-04-03T16:09:16;8.49;40.98
77727;SHT30;68312;53.502;10.030;2023-04-03T16:11:42;8.20;40.39
77727;SHT30;68312;53.502;10.030;2023-04-03T16:14:09;8.04;42.08
77727;SHT30;68312;53.502;10.030;2023-04-03T16:16:35;7.94;42.49
77727;SHT30;68312;53.502;10.030;2023-04-03T16:19:03;7.95;42.41
77727;SHT30;68312;53.502;10.030;2023-04-03T16:21:29;7.90;43.00
77727;SHT30;68312;53.502;10.030;2023-04-03T16:24:01;7.77;42.47
77727;SHT30;68312;53.502;10.030;2023-04-03T16:26:27;7.67;43.80
77727;SHT30;68312;53.502;10.030;2023-04-03T16:28:53;7.64;44.73
77727;SHT30;68312;53.502;10.030;2023-04-03T16:31:21;7.64;44.13
77727;SHT30;68312;53.502;10.030;2023-04-03T16:33:49;7.67;44.15
77727;SHT30;68312;53.502;10.030;2023-04-03T16:36:14;7.66;44.56
77727;SHT30;68312;53.502;10.030;2023-04-03T16:38:40;7.35;44.32
77727;SHT30;68312;53.502;10.030;2023-04-03T16:41:06;7.26;45.70
77727;SHT30;68312;53.502;10.030;2023-04-03T16:43:32;7.11;46.18
77727;SHT30;68312;53.502;10.030;2023-04-03T16:45:59;7.15;45.32
77727;SHT30;68312;53.502;10.030;2023-04-03T16:48:27;7.09;44.93